sensor_id;sensor_type;location;lat;lon;timestamp;P1;durP1;ratioP1;P2;durP2;ratioP2
19225;SDS011;9747;48.536;12.522;2023-07-08T00:01:08;2.83;;;2.63;;
19225;SDS011;9747;48.536;12.522;2023-07-08T00:03:39;2.63;;;2.50;;
19225;SDS011;9747;48.536;12.522;2023-07-08T00:06:07;2.80;;;2.60;;
19225;SDS011;9747;48.536;12.522;2023-07-08T00:08:39;2.60;;;2.40;;
19225;SDS011;9747;48.536;12.522;2023-07-08T00:11:08;2.78;;;2.60;;
19225;SDS011;9747;48.536;12.522;2023-07-08T00:13:37;3.03;;;2.72;;
19225;SDS011;9747;48.536;12.522;2023-07-08T00:16:04;3.03;;;2.80;;
19225;SDS011;9747;48.536;12.522;2023-07-08T00:18:34;3.17;;;2.88;;
19225;SDS011;9747;48.536;12.522;2023-07-08T00:21:02;2.83;;;2.63;;
19225;SDS011;9747;48.536;12.522;2023-07-08T00:23:30;2.80;;;2.60;;
19225;SDS011;9747;48.536;12.522;2023-07-08T00:26:04;2.85;;;2.60;;
19225;SDS011;9747;48.536;12.522;2023-07-08T00:28:36;2.55;;;2.42;;
19225;SDS011;9747;48.536;12.522;2023-07-08T00:31:04;2.67;;;2.50;;
19225;SDS011;9747;48.536;12.522;2023-07-08T00:33:34;2.95;;;2.75;;
19225;SDS011;9747;48.536;12.522;2023-07-08T00:36:05;3.10;;;2.85;;
19225;SDS011;9747;48.536;12.522;2023-07-08T00:38:37;2.92;;;2.67;;
19225;SDS011;9747;48.536;12.522;2023-07-08T00:41:11;2.90;;;2.70;;
19225;SDS011;9747;48.536;12.522;2023-07-08T00:43:41;2.80;;;2.60;;
19225;SDS011;9747;48.536;12.522;2023-07-08T00:46:15;2.90;;;2.70;;
19225;SDS011;9747;48.536;12.522;2023-07-08T00:48:52;2.72;;;2.53;;
19225;SDS011;9747;48.536;12.522;2023-07-08T00:51:22;2.70;;;2.50;;
19225;SDS011;9747;48.536;12.522;2023-07-08T00:53:50;2.70;;;2.50;;
19225;SDS011;9747;48.536;12.522;2023-07-08T00:56:21;2.85;;;2.65;;
19225;SDS011;9747;48.536;12.522;2023-07-08T00:58:54;2.85;;;2.65;;
19225;SDS011;9747;48.536;12.522;2023-07-08T01:01:27;2.80;;;2.60;;
19225;SDS011;9747;48.536;12.522;2023-07-08T01:03:55;2.92;;;2.72;;
19225;SDS011;9747;48.536;12.522;2023-07-08T01:06:27;2.70;;;2.50;;
19225;SDS011;9747;48.536;12.522;2023-07-08T01:08:57;2.90;;;2.70;;
19225;SDS011;9747;48.536;12.522;2023-07-08T01:11:26;2.85;;;2.60;;
19225;SDS011;9747;48.536;12.522;2023-07-08T01:13:53;2.50;;;2.30;;
19225;SDS011;9747;48.536;12.522;2023-07-08T01:16:21;2.85;;;2.65;;
19225;SDS011;9747;48.536;12.522;2023-07-08T01:18:49;2.60;;;2.40;;
19225;SDS011;9747;48.536;12.522;2023-07-08T01:21:30;2.60;;;2.40;;
19225;SDS011;9747;48.536;12.522;2023-07-08T01:24:02;2.65;;;2.45;;
19225;SDS011;9747;48.536;12.522;2023-07-08T01:26:33;2.65;;;2.45;;
19225;SDS011;9747;48.536;12.522;2023-07-08T01:29:02;3.10;;;2.80;;
19225;SDS011;9747;48.536;12.522;2023-07-08T01:31:32;2.72;;;2.50;;
19225;SDS011;9747;48.536;12.522;2023-07-08T01:34:00;2.55;;;2.35;;
19225;SDS011;9747;48.536;12.522;2023-07-08T01:36:28;2.60;;;2.40;;
19225;SDS011;9747;48.536;12.522;2023-07-08T01:38:59;3.08;;;2.78;;
19225;SDS011;9747;48.536;12.522;2023-07-08T01:41:28;2.97;;;2.67;;
19225;SDS011;9747;48.536;12.522;2023-07-08T01:43:56;3.10;;;2.80;;
19225;SDS011;9747;48.536;12.522;2023-07-08T01:46:24;2.95;;;2.70;;
19225;SDS011;9747;48.536;12.522;2023-07-08T01:48:54;2.90;;;2.70;;
19225;SDS011;9747;48.536;12.522;2023-07-08T01:51:24;2.70;;;2.50;;
19225;SDS011;9747;48.536;12.522;2023-07-08T01:53:52;2.78;;;2.58;;
19225;SDS011;9747;48.536;12.522;2023-07-08T01:56:21;2.70;;;2.50;;
19225;SDS011;9747;48.536;12.522;2023-07-08T01:58:48;2.53;;;2.33;;
19225;SDS011;9747;48.536;12.522;2023-07-08T02:01:16;2.90;;;2.70;;
19225;SDS011;9747;48.536;12.522;2023-07-08T02:03:44;2.72;;;2.53;;
19225;SDS011;9747;48.536;12.522;2023-07-08T02:06:11;2.70;;;2.50;;
19225;SDS011;9747;48.536;12.522;2023-07-08T02:08:39;3.13;;;2.72;;
19225;SDS011;9747;48.536;12.522;2023-07-08T02:11:06;2.60;;;2.40;;
19225;SDS011;9747;48.536;12.522;2023-07-08T02:13:35;2.90;;;2.70;;
19225;SDS011;9747;48.536;12.522;2023-07-08T02:16:02;3.17;;;2.55;;
19225;SDS011;9747;48.536;12.522;2023-07-08T02:18:32;3.22;;;2.50;;
19225;SDS011;9747;48.536;12.522;2023-07-08T02:20:59;2.83;;;2.63;;
19225;SDS011;9747;48.536;12.522;2023-07-08T02:23:26;2.70;;;2.50;;
19225;SDS011;9747;48.536;12.522;2023-07-08T02:25:58;2.70;;;2.50;;
19225;SDS011;9747;48.536;12.522;2023-07-08T02:28:25;2.75;;;2.55;;
19225;SDS011;9747;48.536;12.522;2023-07-08T02:30:54;3.25;;;2.70;;
19225;SDS011;9747;48.536;12.522;2023-07-08T02:33:21;2.75;;;2.55;;
19225;SDS011;9747;48.536;12.522;2023-07-08T02:35:57;2.65;;;2.45;;
19225;SDS011;9747;48.536;12.522;2023-07-08T02:38:25;2.72;;;2.53;;
19225;SDS011;9747;48.536;12.522;2023-07-08T02:40:53;2.97;;;2.78;;
19225;SDS011;9747;48.536;12.522;2023-07-08T02:43:20;2.70;;;2.50;;
19225;SDS011;9747;48.536;12.522;2023-07-08T02:45:48;2.60;;;2.38;;
19225;SDS011;9747;48.536;12.522;2023-07-08T02:48:18;2.30;;;2.15;;
19225;SDS011;9747;48.536;12.522;2023-07-08T02:50:45;2.75;;;2.55;;
19225;SDS011;9747;48.536;12.522;2023-07-08T02:53:13;2.70;;;2.50;;
19225;SDS011;9747;48.536;12.522;2023-07-08T02:55:40;2.80;;;2.60;;
19225;SDS011;9747;48.536;12.522;2023-07-08T02:58:08;3.05;;;2.35;;
19225;SDS011;9747;48.536;12.522;2023-07-08T03:00:36;2.40;;;2.30;;
19225;SDS011;9747;48.536;12.522;2023-07-08T03:03:03;2.63;;;2.42;;
19225;SDS011;9747;48.536;12.522;2023-07-08T03:05:32;3.03;;;2.75;;
19225;SDS011;9747;48.536;12.522;2023-07-08T03:07:59;2.70;;;2.50;;
19225;SDS011;9747;48.536;12.522;2023-07-08T03:10:27;2.47;;;2.38;;
19225;SDS011;9747;48.536;12.522;2023-07-08T03:12:54;3.28;;;2.83;;
19225;SDS011;9747;48.536;12.522;2023-07-08T03:15:22;3.05;;;2.78;;
19225;SDS011;9747;48.536;12.522;2023-07-08T03:17:49;2.72;;;2.53;;
19225;SDS011;9747;48.536;12.522;2023-07-08T03:20:18;2.65;;;2.45;;
19225;SDS011;9747;48.536;12.522;2023-07-08T03:22:47;2.85;;;2.65;;
19225;SDS011;9747;48.536;12.522;2023-07-08T03:25:15;2.90;;;2.70;;
19225;SDS011;9747;48.536;12.522;2023-07-08T03:27:48;2.90;;;2.70;;
19225;SDS011;9747;48.536;12.522;2023-07-08T03:30:17;3.05;;;2.72;;
19225;SDS011;9747;48.536;12.522;2023-07-08T03:32:44;3.20;;;2.90;;
19225;SDS011;9747;48.536;12.522;2023-07-08T03:35:11;3.00;;;2.80;;
19225;SDS011;9747;48.536;12.522;2023-07-08T03:37:39;2.83;;;2.60;;
19225;SDS011;9747;48.536;12.522;2023-07-08T03:40:10;3.70;;;3.05;;
19225;SDS011;9747;48.536;12.522;2023-07-08T03:42:38;4.00;;;3.00;;
19225;SDS011;9747;48.536;12.522;2023-07-08T03:45:06;2.95;;;2.60;;
19225;SDS011;9747;48.536;12.522;2023-07-08T03:47:34;3.03;;;2.75;;
19225;SDS011;9747;48.536;12.522;2023-07-08T03:50:02;3.22;;;2.92;;
19225;SDS011;9747;48.536;12.522;2023-07-08T03:52:30;2.97;;;2.60;;
19225;SDS011;9747;48.536;12.522;2023-07-08T03:54:58;2.72;;;2.53;;
19225;SDS011;9747;48.536;12.522;2023-07-08T03:57:28;3.03;;;2.70;;
19225;SDS011;9747;48.536;12.522;2023-07-08T03:59:56;3.00;;;2.80;;
19225;SDS011;9747;48.536;12.522;2023-07-08T04:02:23;3.20;;;2.90;;
19225;SDS011;9747;48.536;12.522;2023-07-08T04:04:50;2.90;;;2.70;;
19225;SDS011;9747;48.536;12.522;2023-07-08T04:07:18;2.58;;;2.40;;
19225;SDS011;9747;48.536;12.522;2023-07-08T04:09:45;2.80;;;2.60;;
19225;SDS011;9747;48.536;12.522;2023-07-08T04:12:15;2.65;;;2.45;;
19225;SDS011;9747;48.536;12.522;2023-07-08T04:14:44;2.60;;;2.40;;
19225;SDS011;9747;48.536;12.522;2023-07-08T04:17:11;2.90;;;2.60;;
19225;SDS011;9747;48.536;12.522;2023-07-08T04:19:38;3.10;;;2.80;;
19225;SDS011;9747;48.536;12.522;2023-07-08T04:22:09;2.60;;;2.40;;
19225;SDS011;9747;48.536;12.522;2023-07-08T04:24:37;2.80;;;2.60;;
19225;SDS011;9747;48.536;12.522;2023-07-08T04:27:05;2.75;;;2.50;;
19225;SDS011;9747;48.536;12.522;2023-07-08T04:29:34;3.00;;;2.70;;
19225;SDS011;9747;48.536;12.522;2023-07-08T04:32:03;2.80;;;2.60;;
19225;SDS011;9747;48.536;12.522;2023-07-08T04:34:31;2.90;;;2.70;;
19225;SDS011;9747;48.536;12.522;2023-07-08T04:36:59;3.00;;;2.80;;
19225;SDS011;9747;48.536;12.522;2023-07-08T04:39:26;2.92;;;2.72;;
19225;SDS011;9747;48.536;12.522;2023-07-08T04:41:54;2.70;;;2.50;;
19225;SDS011;9747;48.536;12.522;2023-07-08T04:44:21;3.25;;;2.95;;
19225;SDS011;9747;48.536;12.522;2023-07-08T04:46:50;4.15;;;2.80;;
19225;SDS011;9747;48.536;12.522;2023-07-08T04:49:20;2.90;;;2.70;;
19225;SDS011;9747;48.536;12.522;2023-07-08T04:51:48;2.63;;;2.42;;
19225;SDS011;9747;48.536;12.522;2023-07-08T04:54:16;3.05;;;2.85;;
19225;SDS011;9747;48.536;12.522;2023-07-08T04:56:45;2.58;;;2.38;;
19225;SDS011;9747;48.536;12.522;2023-07-08T04:59:14;2.78;;;2.58;;
19225;SDS011;9747;48.536;12.522;2023-07-08T05:01:43;3.30;;;2.90;;
19225;SDS011;9747;48.536;12.522;2023-07-08T05:04:11;3.00;;;2.80;;
19225;SDS011;9747;48.536;12.522;2023-07-08T05:06:41;2.90;;;2.70;;
19225;SDS011;9747;48.536;12.522;2023-07-08T05:09:09;3.25;;;2.95;;
19225;SDS011;9747;48.536;12.522;2023-07-08T05:11:36;3.28;;;3.00;;
19225;SDS011;9747;48.536;12.522;2023-07-08T05:14:04;3.13;;;2.92;;
19225;SDS011;9747;48.536;12.522;2023-07-08T05:16:32;2.78;;;2.58;;
19225;SDS011;9747;48.536;12.522;2023-07-08T05:19:00;2.90;;;2.70;;
19225;SDS011;9747;48.536;12.522;2023-07-08T05:21:28;2.50;;;2.30;;
19225;SDS011;9747;48.536;12.522;2023-07-08T05:24:00;3.30;;;2.75;;
19225;SDS011;9747;48.536;12.522;2023-07-08T05:26:27;3.10;;;2.80;;
19225;SDS011;9747;48.536;12.522;2023-07-08T05:28:55;2.80;;;2.60;;
19225;SDS011;9747;48.536;12.522;2023-07-08T05:31:22;2.90;;;2.70;;
19225;SDS011;9747;48.536;12.522;2023-07-08T05:33:50;2.97;;;2.65;;
19225;SDS011;9747;48.536;12.522;2023-07-08T05:36:18;3.00;;;2.78;;
19225;SDS011;9747;48.536;12.522;2023-07-08T05:38:45;5.18;;;4.65;;
19225;SDS011;9747;48.536;12.522;2023-07-08T05:41:14;5.78;;;4.60;;
19225;SDS011;9747;48.536;12.522;2023-07-08T05:43:41;6.45;;;4.60;;
19225;SDS011;9747;48.536;12.522;2023-07-08T05:46:08;5.55;;;4.53;;
19225;SDS011;9747;48.536;12.522;2023-07-08T05:48:36;6.72;;;4.38;;
19225;SDS011;9747;48.536;12.522;2023-07-08T05:51:03;6.20;;;4.85;;
19225;SDS011;9747;48.536;12.522;2023-07-08T05:53:31;5.32;;;4.10;;
19225;SDS011;9747;48.536;12.522;2023-07-08T05:55:58;4.80;;;4.40;;
19225;SDS011;9747;48.536;12.522;2023-07-08T05:58:27;6.63;;;4.28;;
19225;SDS011;9747;48.536;12.522;2023-07-08T06:00:54;6.95;;;4.32;;
19225;SDS011;9747;48.536;12.522;2023-07-08T06:03:22;5.45;;;4.38;;
19225;SDS011;9747;48.536;12.522;2023-07-08T06:05:50;5.43;;;4.20;;
19225;SDS011;9747;48.536;12.522;2023-07-08T06:08:17;4.97;;;4.47;;
19225;SDS011;9747;48.536;12.522;2023-07-08T06:10:45;8.18;;;5.03;;
19225;SDS011;9747;48.536;12.522;2023-07-08T06:13:12;4.43;;;4.03;;
19225;SDS011;9747;48.536;12.522;2023-07-08T06:15:41;8.60;;;4.20;;
19225;SDS011;9747;48.536;12.522;2023-07-08T06:18:09;6.13;;;4.72;;
19225;SDS011;9747;48.536;12.522;2023-07-08T06:20:36;6.45;;;4.50;;
19225;SDS011;9747;48.536;12.522;2023-07-08T06:23:04;5.40;;;4.60;;
19225;SDS011;9747;48.536;12.522;2023-07-08T06:25:32;5.72;;;4.20;;
19225;SDS011;9747;48.536;12.522;2023-07-08T06:28:00;5.72;;;3.83;;
19225;SDS011;9747;48.536;12.522;2023-07-08T06:30:28;4.93;;;4.20;;
19225;SDS011;9747;48.536;12.522;2023-07-08T06:32:57;5.18;;;4.22;;
19225;SDS011;9747;48.536;12.522;2023-07-08T06:35:25;6.25;;;4.50;;
19225;SDS011;9747;48.536;12.522;2023-07-08T06:37:52;4.82;;;4.40;;
19225;SDS011;9747;48.536;12.522;2023-07-08T06:40:19;5.80;;;4.35;;
19225;SDS011;9747;48.536;12.522;2023-07-08T06:42:47;5.00;;;4.50;;
19225;SDS011;9747;48.536;12.522;2023-07-08T06:45:25;6.00;;;4.35;;
19225;SDS011;9747;48.536;12.522;2023-07-08T06:47:53;4.63;;;4.05;;
19225;SDS011;9747;48.536;12.522;2023-07-08T06:50:21;6.40;;;4.07;;
19225;SDS011;9747;48.536;12.522;2023-07-08T06:52:49;5.18;;;4.13;;
19225;SDS011;9747;48.536;12.522;2023-07-08T06:55:16;6.20;;;4.45;;
19225;SDS011;9747;48.536;12.522;2023-07-08T06:57:44;4.75;;;4.35;;
19225;SDS011;9747;48.536;12.522;2023-07-08T07:00:11;4.65;;;4.05;;
19225;SDS011;9747;48.536;12.522;2023-07-08T07:02:39;6.45;;;4.50;;
19225;SDS011;9747;48.536;12.522;2023-07-08T07:05:09;4.85;;;4.18;;
19225;SDS011;9747;48.536;12.522;2023-07-08T07:07:43;4.95;;;4.47;;
19225;SDS011;9747;48.536;12.522;2023-07-08T07:10:12;5.85;;;4.50;;
19225;SDS011;9747;48.536;12.522;2023-07-08T07:12:42;5.00;;;4.50;;
19225;SDS011;9747;48.536;12.522;2023-07-08T07:15:13;4.93;;;4.40;;
19225;SDS011;9747;48.536;12.522;2023-07-08T07:17:44;5.55;;;4.40;;
19225;SDS011;9747;48.536;12.522;2023-07-08T07:20:15;5.80;;;4.63;;
19225;SDS011;9747;48.536;12.522;2023-07-08T07:22:46;4.72;;;4.15;;
19225;SDS011;9747;48.536;12.522;2023-07-08T07:25:17;5.45;;;3.95;;
19225;SDS011;9747;48.536;12.522;2023-07-08T07:27:45;5.43;;;4.15;;
19225;SDS011;9747;48.536;12.522;2023-07-08T07:30:13;5.00;;;4.32;;
19225;SDS011;9747;48.536;12.522;2023-07-08T07:32:40;5.93;;;4.63;;
19225;SDS011;9747;48.536;12.522;2023-07-08T07:35:08;5.78;;;3.90;;
19225;SDS011;9747;48.536;12.522;2023-07-08T07:37:38;6.10;;;4.60;;
19225;SDS011;9747;48.536;12.522;2023-07-08T07:40:10;6.93;;;4.80;;
19225;SDS011;9747;48.536;12.522;2023-07-08T07:42:42;5.55;;;4.10;;
19225;SDS011;9747;48.536;12.522;2023-07-08T07:45:15;5.70;;;4.70;;
19225;SDS011;9747;48.536;12.522;2023-07-08T07:47:48;7.35;;;4.30;;
19225;SDS011;9747;48.536;12.522;2023-07-08T07:50:15;5.07;;;4.07;;
19225;SDS011;9747;48.536;12.522;2023-07-08T07:52:42;5.55;;;4.18;;
19225;SDS011;9747;48.536;12.522;2023-07-08T07:55:11;5.38;;;4.03;;
19225;SDS011;9747;48.536;12.522;2023-07-08T07:57:39;5.13;;;4.13;;
19225;SDS011;9747;48.536;12.522;2023-07-08T08:00:07;4.68;;;4.07;;
19225;SDS011;9747;48.536;12.522;2023-07-08T08:02:39;8.20;;;4.13;;
19225;SDS011;9747;48.536;12.522;2023-07-08T08:05:06;4.93;;;3.80;;
19225;SDS011;9747;48.536;12.522;2023-07-08T08:07:34;5.60;;;4.50;;
19225;SDS011;9747;48.536;12.522;2023-07-08T08:10:02;5.43;;;4.20;;
19225;SDS011;9747;48.536;12.522;2023-07-08T08:12:31;4.78;;;4.13;;
19225;SDS011;9747;48.536;12.522;2023-07-08T08:14:59;4.68;;;4.00;;
19225;SDS011;9747;48.536;12.522;2023-07-08T08:17:26;7.43;;;3.88;;
19225;SDS011;9747;48.536;12.522;2023-07-08T08:19:54;4.82;;;4.00;;
19225;SDS011;9747;48.536;12.522;2023-07-08T08:22:21;6.22;;;3.88;;
19225;SDS011;9747;48.536;12.522;2023-07-08T08:24:49;4.50;;;3.97;;
19225;SDS011;9747;48.536;12.522;2023-07-08T08:27:16;5.53;;;3.90;;
19225;SDS011;9747;48.536;12.522;2023-07-08T08:29:45;4.50;;;4.00;;
19225;SDS011;9747;48.536;12.522;2023-07-08T08:32:12;4.22;;;3.80;;
19225;SDS011;9747;48.536;12.522;2023-07-08T08:34:40;4.88;;;3.58;;
19225;SDS011;9747;48.536;12.522;2023-07-08T08:37:09;5.25;;;4.03;;
19225;SDS011;9747;48.536;12.522;2023-07-08T08:39:37;5.88;;;3.70;;
19225;SDS011;9747;48.536;12.522;2023-07-08T08:42:06;4.90;;;3.95;;
19225;SDS011;9747;48.536;12.522;2023-07-08T08:44:40;4.35;;;3.90;;
19225;SDS011;9747;48.536;12.522;2023-07-08T08:47:13;5.20;;;3.72;;
19225;SDS011;9747;48.536;12.522;2023-07-08T08:49:50;4.60;;;4.15;;
19225;SDS011;9747;48.536;12.522;2023-07-08T08:52:21;4.30;;;3.85;;
19225;SDS011;9747;48.536;12.522;2023-07-08T08:54:49;4.90;;;3.47;;
19225;SDS011;9747;48.536;12.522;2023-07-08T08:57:20;4.00;;;3.60;;
19225;SDS011;9747;48.536;12.522;2023-07-08T08:59:59;3.92;;;3.63;;
19225;SDS011;9747;48.536;12.522;2023-07-08T09:02:30;4.38;;;3.85;;
19225;SDS011;9747;48.536;12.522;2023-07-08T09:05:02;4.15;;;3.75;;
19225;SDS011;9747;48.536;12.522;2023-07-08T09:07:34;4.93;;;3.80;;
19225;SDS011;9747;48.536;12.522;2023-07-08T09:10:09;4.15;;;3.78;;
19225;SDS011;9747;48.536;12.522;2023-07-08T09:12:48;4.00;;;3.45;;
19225;SDS011;9747;48.536;12.522;2023-07-08T09:15:17;4.05;;;3.65;;
19225;SDS011;9747;48.536;12.522;2023-07-08T09:17:47;4.05;;;3.60;;
19225;SDS011;9747;48.536;12.522;2023-07-08T09:20:17;5.30;;;3.92;;
19225;SDS011;9747;48.536;12.522;2023-07-08T09:22:51;4.32;;;3.80;;
19225;SDS011;9747;48.536;12.522;2023-07-08T09:25:24;4.30;;;3.85;;
19225;SDS011;9747;48.536;12.522;2023-07-08T09:27:54;3.42;;;3.13;;
19225;SDS011;9747;48.536;12.522;2023-07-08T09:30:23;3.70;;;3.40;;
19225;SDS011;9747;48.536;12.522;2023-07-08T09:32:55;3.75;;;3.40;;
19225;SDS011;9747;48.536;12.522;2023-07-08T09:35:23;4.43;;;4.00;;
19225;SDS011;9747;48.536;12.522;2023-07-08T09:37:53;4.00;;;3.60;;
19225;SDS011;9747;48.536;12.522;2023-07-08T09:40:21;3.92;;;3.50;;
19225;SDS011;9747;48.536;12.522;2023-07-08T09:42:55;4.78;;;3.90;;
19225;SDS011;9747;48.536;12.522;2023-07-08T09:45:28;4.43;;;3.90;;
19225;SDS011;9747;48.536;12.522;2023-07-08T09:48:13;4.03;;;3.70;;
19225;SDS011;9747;48.536;12.522;2023-07-08T09:50:43;4.22;;;3.83;;
19225;SDS011;9747;48.536;12.522;2023-07-08T09:53:13;3.95;;;3.63;;
19225;SDS011;9747;48.536;12.522;2023-07-08T09:55:41;4.55;;;4.10;;
19225;SDS011;9747;48.536;12.522;2023-07-08T09:58:08;6.03;;;3.88;;
19225;SDS011;9747;48.536;12.522;2023-07-08T10:00:40;4.40;;;3.30;;
19225;SDS011;9747;48.536;12.522;2023-07-08T10:03:11;4.35;;;3.70;;
19225;SDS011;9747;48.536;12.522;2023-07-08T10:05:45;3.90;;;3.50;;
19225;SDS011;9747;48.536;12.522;2023-07-08T10:08:15;6.60;;;3.92;;
19225;SDS011;9747;48.536;12.522;2023-07-08T10:10:45;5.13;;;3.60;;
19225;SDS011;9747;48.536;12.522;2023-07-08T10:13:34;7.70;;;4.13;;
19225;SDS011;9747;48.536;12.522;2023-07-08T10:18:52;4.93;;;3.92;;
19225;SDS011;9747;48.536;12.522;2023-07-08T10:21:23;5.20;;;3.88;;
19225;SDS011;9747;48.536;12.522;2023-07-08T10:24:00;6.88;;;4.28;;
19225;SDS011;9747;48.536;12.522;2023-07-08T10:26:44;6.20;;;3.80;;
19225;SDS011;9747;48.536;12.522;2023-07-08T10:29:16;8.20;;;4.22;;
19225;SDS011;9747;48.536;12.522;2023-07-08T10:31:49;9.30;;;4.20;;
19225;SDS011;9747;48.536;12.522;2023-07-08T10:34:26;8.23;;;4.18;;
19225;SDS011;9747;48.536;12.522;2023-07-08T10:37:04;7.00;;;4.05;;
19225;SDS011;9747;48.536;12.522;2023-07-08T10:39:47;13.40;;;4.72;;
19225;SDS011;9747;48.536;12.522;2023-07-08T10:42:28;7.93;;;4.30;;
19225;SDS011;9747;48.536;12.522;2023-07-08T10:45:10;10.10;;;4.43;;
19225;SDS011;9747;48.536;12.522;2023-07-08T10:47:46;5.95;;;4.25;;
19225;SDS011;9747;48.536;12.522;2023-07-08T10:50:33;7.85;;;4.78;;
19225;SDS011;9747;48.536;12.522;2023-07-08T10:53:17;12.70;;;4.28;;
19225;SDS011;9747;48.536;12.522;2023-07-08T10:55:57;6.20;;;4.05;;
19225;SDS011;9747;48.536;12.522;2023-07-08T10:58:36;5.47;;;4.30;;
19225;SDS011;9747;48.536;12.522;2023-07-08T11:01:22;7.93;;;4.28;;
19225;SDS011;9747;48.536;12.522;2023-07-08T11:04:00;6.63;;;4.18;;
19225;SDS011;9747;48.536;12.522;2023-07-08T11:06:47;6.10;;;3.83;;
19225;SDS011;9747;48.536;12.522;2023-07-08T11:09:17;4.80;;;3.95;;
19225;SDS011;9747;48.536;12.522;2023-07-08T11:11:53;3.88;;;3.45;;
19225;SDS011;9747;48.536;12.522;2023-07-08T11:14:24;4.75;;;4.00;;
19225;SDS011;9747;48.536;12.522;2023-07-08T11:16:56;5.35;;;3.83;;
19225;SDS011;9747;48.536;12.522;2023-07-08T11:19:34;5.32;;;4.32;;
19225;SDS011;9747;48.536;12.522;2023-07-08T11:22:11;4.70;;;4.10;;
19225;SDS011;9747;48.536;12.522;2023-07-08T11:24:41;4.63;;;4.05;;
19225;SDS011;9747;48.536;12.522;2023-07-08T11:27:13;4.55;;;4.15;;
19225;SDS011;9747;48.536;12.522;2023-07-08T11:29:49;5.00;;;4.38;;
19225;SDS011;9747;48.536;12.522;2023-07-08T11:32:21;4.95;;;3.83;;
19225;SDS011;9747;48.536;12.522;2023-07-08T11:34:51;5.45;;;4.50;;
19225;SDS011;9747;48.536;12.522;2023-07-08T11:37:21;11.02;;;9.38;;
19225;SDS011;9747;48.536;12.522;2023-07-08T11:39:53;11.95;;;8.45;;
19225;SDS011;9747;48.536;12.522;2023-07-08T11:42:24;9.40;;;8.50;;
19225;SDS011;9747;48.536;12.522;2023-07-08T11:44:58;11.00;;;8.52;;
19225;SDS011;9747;48.536;12.522;2023-07-08T11:47:32;9.98;;;7.22;;
19225;SDS011;9747;48.536;12.522;2023-07-08T11:50:04;7.18;;;6.28;;
19225;SDS011;9747;48.536;12.522;2023-07-08T11:52:55;6.35;;;5.20;;
19225;SDS011;9747;48.536;12.522;2023-07-08T11:55:27;7.80;;;5.38;;
19225;SDS011;9747;48.536;12.522;2023-07-08T11:58:05;7.55;;;6.75;;
19225;SDS011;9747;48.536;12.522;2023-07-08T12:00:34;11.73;;;5.88;;
19225;SDS011;9747;48.536;12.522;2023-07-08T12:03:04;6.30;;;4.82;;
19225;SDS011;9747;48.536;12.522;2023-07-08T12:05:44;8.60;;;5.72;;
19225;SDS011;9747;48.536;12.522;2023-07-08T12:08:14;8.52;;;6.18;;
19225;SDS011;9747;48.536;12.522;2023-07-08T12:10:46;7.05;;;5.25;;
19225;SDS011;9747;48.536;12.522;2023-07-08T12:13:17;5.05;;;4.57;;
19225;SDS011;9747;48.536;12.522;2023-07-08T12:15:46;5.38;;;4.55;;
19225;SDS011;9747;48.536;12.522;2023-07-08T12:18:14;5.68;;;4.40;;
19225;SDS011;9747;48.536;12.522;2023-07-08T12:20:46;4.70;;;4.03;;
19225;SDS011;9747;48.536;12.522;2023-07-08T12:23:20;6.15;;;4.28;;
19225;SDS011;9747;48.536;12.522;2023-07-08T12:25:49;5.13;;;4.20;;
19225;SDS011;9747;48.536;12.522;2023-07-08T12:28:18;4.75;;;4.25;;
19225;SDS011;9747;48.536;12.522;2023-07-08T12:30:46;5.30;;;4.20;;
19225;SDS011;9747;48.536;12.522;2023-07-08T12:33:16;4.40;;;4.00;;
19225;SDS011;9747;48.536;12.522;2023-07-08T12:35:46;5.35;;;4.30;;
19225;SDS011;9747;48.536;12.522;2023-07-08T12:38:16;5.28;;;4.20;;
19225;SDS011;9747;48.536;12.522;2023-07-08T12:40:50;5.28;;;4.25;;
19225;SDS011;9747;48.536;12.522;2023-07-08T12:43:17;7.72;;;4.28;;
19225;SDS011;9747;48.536;12.522;2023-07-08T12:45:45;7.15;;;4.45;;
19225;SDS011;9747;48.536;12.522;2023-07-08T12:48:12;6.70;;;4.53;;
19225;SDS011;9747;48.536;12.522;2023-07-08T12:50:40;3.85;;;3.35;;
19225;SDS011;9747;48.536;12.522;2023-07-08T12:53:07;4.20;;;3.85;;
19225;SDS011;9747;48.536;12.522;2023-07-08T12:55:39;3.85;;;3.55;;
19225;SDS011;9747;48.536;12.522;2023-07-08T12:58:12;3.83;;;3.53;;
19225;SDS011;9747;48.536;12.522;2023-07-08T13:00:42;4.18;;;3.53;;
19225;SDS011;9747;48.536;12.522;2023-07-08T13:03:12;4.20;;;3.80;;
19225;SDS011;9747;48.536;12.522;2023-07-08T13:05:41;4.68;;;4.00;;
19225;SDS011;9747;48.536;12.522;2023-07-08T13:08:10;4.75;;;3.90;;
19225;SDS011;9747;48.536;12.522;2023-07-08T13:10:40;5.05;;;4.13;;
19225;SDS011;9747;48.536;12.522;2023-07-08T13:13:08;4.25;;;3.80;;
19225;SDS011;9747;48.536;12.522;2023-07-08T13:15:40;5.00;;;3.85;;
19225;SDS011;9747;48.536;12.522;2023-07-08T13:18:08;5.90;;;4.15;;
19225;SDS011;9747;48.536;12.522;2023-07-08T13:20:42;5.57;;;3.70;;
19225;SDS011;9747;48.536;12.522;2023-07-08T13:23:11;4.38;;;4.00;;
19225;SDS011;9747;48.536;12.522;2023-07-08T13:25:40;4.32;;;3.83;;
19225;SDS011;9747;48.536;12.522;2023-07-08T13:28:15;5.40;;;4.13;;
19225;SDS011;9747;48.536;12.522;2023-07-08T13:30:49;5.35;;;3.95;;
19225;SDS011;9747;48.536;12.522;2023-07-08T13:33:18;6.68;;;4.20;;
19225;SDS011;9747;48.536;12.522;2023-07-08T13:35:46;5.15;;;4.38;;
19225;SDS011;9747;48.536;12.522;2023-07-08T13:38:15;5.05;;;4.45;;
19225;SDS011;9747;48.536;12.522;2023-07-08T13:40:46;7.38;;;4.50;;
19225;SDS011;9747;48.536;12.522;2023-07-08T13:43:15;6.32;;;4.20;;
19225;SDS011;9747;48.536;12.522;2023-07-08T13:45:43;5.55;;;4.20;;
19225;SDS011;9747;48.536;12.522;2023-07-08T13:48:14;8.18;;;4.60;;
19225;SDS011;9747;48.536;12.522;2023-07-08T13:50:49;5.07;;;4.20;;
19225;SDS011;9747;48.536;12.522;2023-07-08T13:53:22;5.25;;;4.32;;
19225;SDS011;9747;48.536;12.522;2023-07-08T13:56:00;4.63;;;4.03;;
19225;SDS011;9747;48.536;12.522;2023-07-08T13:58:29;5.28;;;4.38;;
19225;SDS011;9747;48.536;12.522;2023-07-08T14:00:57;4.63;;;4.15;;
19225;SDS011;9747;48.536;12.522;2023-07-08T14:03:25;6.85;;;4.53;;
19225;SDS011;9747;48.536;12.522;2023-07-08T14:05:53;5.85;;;4.05;;
19225;SDS011;9747;48.536;12.522;2023-07-08T14:08:20;6.78;;;4.88;;
19225;SDS011;9747;48.536;12.522;2023-07-08T14:10:48;7.60;;;4.65;;
19225;SDS011;9747;48.536;12.522;2023-07-08T14:13:16;5.72;;;4.03;;
19225;SDS011;9747;48.536;12.522;2023-07-08T14:15:44;7.40;;;4.47;;
19225;SDS011;9747;48.536;12.522;2023-07-08T14:18:12;6.25;;;4.40;;
19225;SDS011;9747;48.536;12.522;2023-07-08T14:20:39;6.18;;;4.63;;
19225;SDS011;9747;48.536;12.522;2023-07-08T14:23:08;6.50;;;4.20;;
19225;SDS011;9747;48.536;12.522;2023-07-08T14:25:38;9.13;;;3.80;;
19225;SDS011;9747;48.536;12.522;2023-07-08T14:28:06;9.52;;;4.38;;
19225;SDS011;9747;48.536;12.522;2023-07-08T14:30:36;5.80;;;3.83;;
19225;SDS011;9747;48.536;12.522;2023-07-08T14:33:10;8.98;;;4.18;;
19225;SDS011;9747;48.536;12.522;2023-07-08T14:35:38;5.53;;;3.67;;
19225;SDS011;9747;48.536;12.522;2023-07-08T14:38:08;8.95;;;4.90;;
19225;SDS011;9747;48.536;12.522;2023-07-08T14:40:38;7.40;;;4.40;;
19225;SDS011;9747;48.536;12.522;2023-07-08T14:43:10;6.47;;;4.40;;
19225;SDS011;9747;48.536;12.522;2023-07-08T14:45:48;11.63;;;3.95;;
19225;SDS011;9747;48.536;12.522;2023-07-08T14:48:17;7.65;;;4.65;;
19225;SDS011;9747;48.536;12.522;2023-07-08T14:50:45;6.65;;;4.30;;
19225;SDS011;9747;48.536;12.522;2023-07-08T14:53:12;7.85;;;4.28;;
19225;SDS011;9747;48.536;12.522;2023-07-08T14:55:41;9.55;;;4.20;;
19225;SDS011;9747;48.536;12.522;2023-07-08T14:58:09;6.47;;;4.63;;
19225;SDS011;9747;48.536;12.522;2023-07-08T15:00:48;6.82;;;5.25;;
19225;SDS011;9747;48.536;12.522;2023-07-08T15:03:16;8.00;;;4.20;;
19225;SDS011;9747;48.536;12.522;2023-07-08T15:05:44;6.75;;;4.53;;
19225;SDS011;9747;48.536;12.522;2023-07-08T15:08:11;6.30;;;4.13;;